createdAt,value
2022-11-19T05:01:12.267Z,100619.00
2022-11-19T05:03:40.551Z,100609.00
2022-11-19T05:06:09.199Z,100606.00
2022-11-19T05:08:37.431Z,100601.00
2022-11-19T05:11:06.208Z,100606.00
2022-11-19T05:13:34.390Z,100595.00
2022-11-19T05:16:02.642Z,100602.00
2022-11-19T05:18:32.066Z,100592.00
2022-11-19T05:21:00.334Z,100597.00
2022-11-19T05:23:29.257Z,100601.00
2022-11-19T05:25:57.439Z,100608.00
2022-11-19T05:28:38.136Z,100594.00
2022-11-19T05:31:08.491Z,100600.00
2022-11-19T05:33:38.175Z,100591.00
2022-11-19T05:36:07.715Z,100610.00
2022-11-19T05:38:36.015Z,100606.00
2022-11-19T05:41:04.241Z,100600.00
2022-11-19T05:43:32.413Z,100598.00
2022-11-19T05:46:01.589Z,100597.00
2022-11-19T05:48:29.866Z,100595.00
2022-11-19T05:50:59.388Z,100594.00
2022-11-19T05:53:28.334Z,100604.00
2022-11-19T05:55:56.500Z,100603.00
2022-11-19T05:58:25.181Z,100618.00
2022-11-19T06:00:56.855Z,100627.00
2022-11-19T06:03:25.188Z,100623.00
2022-11-19T06:05:54.567Z,100609.00
2022-11-19T06:08:24.179Z,100611.00
2022-11-19T06:10:52.368Z,100611.00
2022-11-19T06:13:20.714Z,100610.00
2022-11-19T06:15:49.301Z,100615.00
2022-11-19T06:18:17.470Z,100617.00
2022-11-19T06:20:45.678Z,100612.00
2022-11-19T06:23:13.945Z,100615.00
2022-11-19T06:25:43.369Z,100620.00
2022-11-19T06:28:11.473Z,100609.00
2022-11-19T06:30:39.643Z,100615.00
2022-11-19T06:33:07.792Z,100602.00
2022-11-19T06:35:35.945Z,100604.00
2022-11-19T06:38:04.127Z,100601.00
2022-11-19T06:40:32.318Z,100604.00
2022-11-19T06:43:01.915Z,100609.00
2022-11-19T06:45:30.075Z,100592.00
2022-11-19T06:47:58.206Z,100603.00
2022-11-19T06:50:26.360Z,100602.00
2022-11-19T06:52:54.508Z,100594.00
2022-11-19T06:55:22.711Z,100600.00
2022-11-19T06:57:50.883Z,100610.00
2022-11-19T07:00:21.058Z,100603.00
2022-11-19T07:02:49.227Z,100620.00
2022-11-19T07:05:17.558Z,100614.00
2022-11-19T07:07:45.677Z,100617.00
2022-11-19T07:10:13.843Z,100605.00
2022-11-19T07:12:41.993Z,100611.00
2022-11-19T07:15:12.042Z,100614.00
2022-11-19T07:17:42.464Z,100622.00
2022-11-19T07:20:12.095Z,100629.00
2022-11-19T07:22:42.395Z,100625.00
2022-11-19T07:25:13.308Z,100605.00
2022-11-19T07:27:42.615Z,100605.00
2022-11-19T07:30:12.046Z,100613.00
2022-11-19T07:32:42.328Z,100617.00
2022-11-19T07:35:11.927Z,100613.00
2022-11-19T07:37:40.349Z,100620.00
2022-11-19T07:40:11.035Z,100615.00
2022-11-19T07:42:50.420Z,100624.00
2022-11-19T07:45:21.742Z,100592.00
2022-11-19T07:47:51.411Z,100619.00
2022-11-19T07:50:19.896Z,100623.00
2022-11-19T07:52:48.027Z,100621.00
2022-11-19T07:55:16.475Z,100609.00
2022-11-19T07:57:44.625Z,100617.00
2022-11-19T08:00:14.690Z,100618.00
2022-11-19T08:02:42.904Z,100566.00
2022-11-19T08:05:12.570Z,100609.00
2022-11-19T08:07:40.974Z,100605.00
2022-11-19T08:10:11.376Z,100603.00
2022-11-19T08:12:39.512Z,100588.00
2022-11-19T08:15:09.656Z,100599.00
2022-11-19T08:18:04.206Z,100589.00
2022-11-19T08:20:34.112Z,100595.00
2022-11-19T08:23:02.235Z,100586.00
2022-11-19T08:25:30.384Z,100588.00
2022-11-19T08:27:58.556Z,100589.00
2022-11-19T08:30:26.778Z,100587.00
2022-11-19T08:32:54.914Z,100590.00
2022-11-19T08:35:23.195Z,100598.00
2022-11-19T08:37:52.747Z,100589.00
2022-11-19T08:40:21.189Z,100587.00
2022-11-19T08:43:07.213Z,100575.00
2022-11-19T08:45:39.460Z,100579.00
2022-11-19T08:48:10.393Z,100583.00
2022-11-19T08:50:38.795Z,100569.00
2022-11-19T08:53:08.343Z,100580.00
2022-11-19T08:55:36.518Z,100583.00
2022-11-19T08:58:07.800Z,100587.00
2022-11-19T09:00:38.433Z,100568.00
2022-11-19T09:03:06.650Z,100588.00
2022-11-19T09:05:34.881Z,100590.00
2022-11-19T09:08:03.022Z,100597.00
2022-11-19T09:10:32.568Z,100591.00
2022-11-19T09:13:03.019Z,100598.00
2022-11-19T09:15:31.228Z,100588.00
2022-11-19T09:17:59.373Z,100582.00
2022-11-19T09:20:27.566Z,100590.00
2022-11-19T09:22:55.795Z,100592.00
2022-11-19T09:25:23.906Z,100589.00
2022-11-19T09:27:53.390Z,100582.00
2022-11-19T09:30:21.632Z,100598.00
2022-11-19T09:32:49.835Z,100595.00
2022-11-19T09:35:18.088Z,100597.00
2022-11-19T09:37:46.262Z,100595.00
2022-11-19T09:40:20.215Z,100597.00
2022-11-19T09:43:07.739Z,100588.00
2022-11-19T09:45:54.807Z,100601.00
2022-11-19T09:48:35.131Z,100587.00
2022-11-19T09:51:09.338Z,100602.00
2022-11-19T09:53:46.721Z,100596.00
2022-11-19T09:56:23.458Z,100601.00
2022-11-19T09:58:53.835Z,100599.00
2022-11-19T10:01:22.083Z,100590.00
2022-11-19T10:03:54.389Z,100587.00
2022-11-19T10:06:31.347Z,100565.00
2022-11-19T10:09:27.284Z,100565.00
2022-11-19T10:12:13.943Z,100565.00
2022-11-19T10:15:10.406Z,100570.00
2022-11-19T10:17:57.922Z,100565.00
2022-11-19T10:21:01.709Z,100565.00
2022-11-19T10:23:47.359Z,100546.00
2022-11-19T10:26:18.758Z,100549.00
2022-11-19T10:28:56.101Z,100549.00
2022-11-19T10:31:34.626Z,100550.00
2022-11-19T10:34:15.551Z,100536.00
2022-11-19T10:36:49.236Z,100548.00
2022-11-19T10:39:25.881Z,100542.00
2022-11-19T10:42:00.494Z,100537.00
2022-11-19T10:44:43.854Z,100533.00
2022-11-19T10:47:20.426Z,100535.00
2022-11-19T10:49:54.090Z,100539.00
2022-11-19T10:52:32.563Z,100516.00
2022-11-19T10:55:15.032Z,100524.00
2022-11-19T10:57:44.645Z,100508.00
2022-11-19T11:00:14.681Z,100501.00
2022-11-19T11:02:48.844Z,100511.00
2022-11-19T11:05:19.968Z,100513.00
2022-11-19T11:07:57.578Z,100502.00
2022-11-19T11:10:34.916Z,100510.00
2022-11-19T11:13:49.171Z,100503.00
2022-11-19T11:16:22.420Z,100505.00
2022-11-19T11:18:55.892Z,100503.00
2022-11-19T11:21:38.179Z,100495.00
2022-11-19T11:24:08.414Z,100505.00
2022-11-19T11:26:37.875Z,100481.00
2022-11-19T11:29:25.115Z,100487.00
2022-11-19T11:31:53.734Z,100490.00
2022-11-19T11:34:36.943Z,100472.00
2022-11-19T11:37:09.669Z,100483.00
2022-11-19T11:39:44.185Z,100467.00
2022-11-19T11:42:18.693Z,100475.00
2022-11-19T11:44:53.620Z,100471.00
2022-11-19T11:47:26.679Z,100297.00
2022-11-19T11:50:08.941Z,100455.00
2022-11-19T11:52:44.593Z,100461.00
2022-11-19T11:55:33.538Z,100476.00
2022-11-19T11:58:05.456Z,100476.00
2022-11-19T12:00:38.052Z,100466.00
2022-11-19T12:03:10.138Z,100481.00
2022-11-19T12:05:51.937Z,100470.00
2022-11-19T12:08:46.915Z,100461.00
2022-11-19T12:11:25.036Z,100443.00
2022-11-19T12:14:09.635Z,100444.00
2022-11-19T12:17:03.127Z,100473.00
2022-11-19T12:20:03.725Z,100474.00
2022-11-19T12:22:48.919Z,100476.00
2022-11-19T12:25:32.142Z,100463.00
2022-11-19T12:28:28.189Z,100479.00
2022-11-19T12:31:18.759Z,100472.00
2022-11-19T12:34:10.125Z,100476.00
2022-11-19T12:36:56.770Z,100482.00
2022-11-19T12:39:44.542Z,100481.00
2022-11-19T12:42:49.227Z,100471.00
2022-11-19T12:45:30.549Z,100460.00
2022-11-19T12:48:32.926Z,100464.00
2022-11-19T12:51:12.800Z,100462.00
2022-11-19T12:54:04.854Z,100472.00
2022-11-19T12:56:47.400Z,100454.00
2022-11-19T12:59:38.771Z,100450.00
2022-11-19T13:02:18.850Z,100450.00
2022-11-19T13:04:53.900Z,100449.00
2022-11-19T13:07:28.325Z,100404.00
2022-11-19T13:10:04.072Z,100450.00
2022-11-19T13:12:38.585Z,100445.00
2022-11-19T13:15:18.542Z,100455.00
2022-11-19T13:17:52.590Z,100443.00
2022-11-19T13:20:30.145Z,100426.00
2022-11-19T13:23:05.676Z,100441.00
2022-11-19T13:25:41.154Z,100435.00
2022-11-19T13:28:21.396Z,100442.00
2022-11-19T13:30:54.965Z,100446.00
2022-11-19T13:33:29.443Z,100452.00
2022-11-19T13:36:06.215Z,100419.00
2022-11-19T13:38:45.674Z,100443.00
2022-11-19T13:41:19.890Z,100447.00
2022-11-19T13:44:07.483Z,100439.00
2022-11-19T13:46:42.673Z,100450.00
2022-11-19T13:49:21.094Z,100445.00
2022-11-19T13:51:56.661Z,100428.00
2022-11-19T13:54:28.619Z,100433.00
2022-11-19T13:56:59.316Z,100429.00
2022-11-19T13:59:40.852Z,100427.00
2022-11-19T14:02:48.191Z,100434.00
2022-11-19T14:05:42.717Z,100433.00
2022-11-19T14:08:37.709Z,100436.00
2022-11-19T14:11:32.840Z,100435.00
2022-11-19T14:14:50.398Z,100439.00
2022-11-19T14:17:48.571Z,100447.00
2022-11-19T14:20:54.444Z,100430.00
2022-11-19T14:24:04.450Z,100436.00
2022-11-19T14:27:20.151Z,100427.00
2022-11-19T14:30:01.660Z,100430.00
2022-11-19T14:32:45.407Z,100432.00
2022-11-19T14:35:42.043Z,100439.00
2022-11-19T14:38:37.615Z,100412.00
2022-11-19T14:41:33.320Z,100420.00
2022-11-19T14:44:36.106Z,100423.00
2022-11-19T14:47:34.362Z,100442.00
2022-11-19T14:50:08.077Z,100425.00
2022-11-19T14:52:49.864Z,100424.00
2022-11-19T14:55:24.162Z,100428.00
2022-11-19T14:58:00.539Z,100433.00
2022-11-19T15:00:33.609Z,100428.00
2022-11-19T15:03:07.410Z,100435.00
2022-11-19T15:05:41.959Z,100425.00
2022-11-19T15:08:31.019Z,100434.00
2022-11-19T15:11:08.680Z,100424.00
2022-11-19T15:13:39.204Z,100433.00
2022-11-19T15:16:12.672Z,100422.00
2022-11-19T15:19:32.204Z,100422.00
2022-11-19T15:22:41.303Z,100420.00
2022-11-19T15:25:28.211Z,100426.00
2022-11-19T15:28:14.127Z,100411.00
2022-11-19T15:30:59.638Z,100422.00
2022-11-19T15:34:49.079Z,100412.00
2022-11-19T15:37:31.128Z,100413.00
2022-11-19T15:40:00.818Z,100413.00
2022-11-19T15:42:38.352Z,100402.00
2022-11-19T15:45:16.600Z,100391.00
2022-11-19T15:47:52.443Z,100412.00
2022-11-19T15:50:24.909Z,100412.00
2022-11-19T15:53:00.423Z,100375.00
2022-11-19T15:55:32.069Z,100405.00
2022-11-19T15:58:07.668Z,100408.00
2022-11-19T16:00:46.752Z,100401.00
2022-11-19T16:03:16.065Z,100405.00
2022-11-19T16:06:02.933Z,100397.00
2022-11-19T16:08:32.190Z,100406.00
2022-11-19T16:11:20.588Z,100394.00
2022-11-19T16:14:10.747Z,100397.00
2022-11-19T16:17:02.964Z,100391.00
2022-11-19T16:19:31.246Z,100391.00
2022-11-19T16:22:04.441Z,100391.00
2022-11-19T16:24:50.856Z,100394.00
2022-11-19T16:27:24.972Z,100387.00
2022-11-19T16:29:53.499Z,100363.00
2022-11-19T16:32:25.268Z,100386.00
2022-11-19T16:34:53.606Z,100388.00
2022-11-19T16:37:23.923Z,100386.00
2022-11-19T16:39:55.677Z,100376.00
2022-11-19T16:42:27.274Z,100373.00
2022-11-19T16:44:57.858Z,100374.00
2022-11-19T16:47:31.909Z,100377.00
2022-11-19T16:50:05.480Z,100393.00
2022-11-19T16:52:40.514Z,100385.00
2022-11-19T16:55:43.844Z,100389.00
2022-11-19T16:58:19.684Z,100388.00
2022-11-19T17:00:51.717Z,100390.00
2022-11-19T17:03:39.562Z,100389.00
2022-11-19T17:06:10.075Z,100394.00
2022-11-19T17:08:39.899Z,100384.00
2022-11-19T17:11:38.564Z,100377.00
2022-11-19T17:14:21.288Z,100394.00
2022-11-19T17:16:51.744Z,100393.00
2022-11-19T17:19:33.058Z,100384.00
2022-11-19T17:22:06.086Z,100389.00
2022-11-19T17:24:44.291Z,100385.00
2022-11-19T17:27:26.423Z,100393.00
2022-11-19T17:30:02.723Z,100387.00
2022-11-19T17:32:39.737Z,100393.00
2022-11-19T17:35:10.842Z,100357.00
2022-11-19T17:37:38.981Z,100393.00
2022-11-19T17:40:10.213Z,100390.00
2022-11-19T17:42:56.658Z,100397.00
2022-11-19T17:45:24.822Z,100396.00
2022-11-19T17:47:53.208Z,100399.00
2022-11-19T17:50:21.715Z,100383.00
2022-11-19T17:52:50.308Z,100392.00
2022-11-19T17:55:23.423Z,100395.00
2022-11-19T17:57:51.694Z,100391.00
2022-11-19T18:00:20.205Z,100387.00
2022-11-19T18:02:49.296Z,100400.00
2022-11-19T18:05:22.997Z,100390.00
2022-11-19T18:07:51.604Z,100398.00
2022-11-19T18:10:22.234Z,100398.00
2022-11-19T18:12:50.370Z,100386.00
2022-11-19T18:15:21.663Z,100387.00
2022-11-19T18:17:49.907Z,100396.00
2022-11-19T18:20:18.228Z,100389.00
2022-11-19T18:22:47.705Z,100396.00
2022-11-19T18:25:19.264Z,100392.00
2022-11-19T18:27:49.147Z,100399.00
2022-11-19T18:30:18.397Z,100399.00
2022-11-19T18:32:46.598Z,100392.00
2022-11-19T18:35:18.413Z,100380.00
2022-11-19T18:37:47.215Z,100395.00
2022-11-19T18:40:16.765Z,100392.00
2022-11-19T18:42:59.312Z,100388.00
2022-11-19T18:45:29.535Z,100398.00
2022-11-19T18:47:57.748Z,100400.00
2022-11-19T18:50:29.839Z,100390.00
2022-11-19T18:52:58.680Z,100398.00
2022-11-19T18:55:26.941Z,100404.00
2022-11-19T18:57:55.116Z,100404.00
2022-11-19T19:00:23.574Z,100407.00
2022-11-19T19:02:53.814Z,100402.00
2022-11-19T19:05:22.054Z,100388.00
2022-11-19T19:07:50.254Z,100398.00
2022-11-19T19:10:18.587Z,100400.00
2022-11-19T19:12:45.814Z,100404.00
2022-11-19T19:15:15.305Z,100403.00
2022-11-19T19:17:43.792Z,100397.00
2022-11-19T19:20:14.356Z,100403.00
2022-11-19T19:22:42.553Z,100405.00
2022-11-19T19:25:11.086Z,100399.00
2022-11-19T19:27:39.751Z,100400.00
2022-11-19T19:30:10.133Z,100401.00
2022-11-19T19:32:38.402Z,100402.00
2022-11-19T19:35:08.177Z,100406.00
2022-11-19T19:37:37.791Z,100403.00
2022-11-19T19:40:07.793Z,100387.00
2022-11-19T19:42:41.091Z,100403.00
2022-11-19T19:45:11.401Z,100409.00
2022-11-19T19:47:39.570Z,100417.00
2022-11-19T19:50:08.612Z,100413.00
2022-11-19T19:52:38.481Z,100415.00
2022-11-19T19:55:08.031Z,100419.00
2022-11-19T19:57:36.244Z,100412.00
2022-11-19T20:00:05.824Z,100423.00
2022-11-19T20:02:33.957Z,100427.00
2022-11-19T20:05:02.102Z,100419.00
2022-11-19T20:07:30.339Z,100434.00
2022-11-19T20:09:59.937Z,100409.00
2022-11-19T20:12:48.073Z,100426.00
2022-11-19T20:15:16.351Z,100424.00
2022-11-19T20:17:44.530Z,100434.00
2022-11-19T20:20:13.836Z,100425.00
2022-11-19T20:22:42.001Z,100427.00
2022-11-19T20:25:11.845Z,100440.00
2022-11-19T20:27:40.279Z,100436.00
2022-11-19T20:30:10.494Z,100443.00
2022-11-19T20:32:38.690Z,100423.00
2022-11-19T20:35:07.776Z,100446.00
2022-11-19T20:37:35.901Z,100440.00
2022-11-19T20:40:04.390Z,100447.00
2022-11-19T20:42:51.823Z,100449.00
2022-11-19T20:45:20.015Z,100447.00
2022-11-19T20:47:48.611Z,100450.00
2022-11-19T20:50:17.547Z,100435.00
2022-11-19T20:52:45.772Z,100440.00
2022-11-19T20:55:14.010Z,100446.00
2022-11-19T20:57:43.507Z,100443.00
2022-11-19T21:00:14.126Z,100442.00
2022-11-19T21:02:42.282Z,100442.00
2022-11-19T21:05:10.597Z,100443.00
2022-11-19T21:07:38.857Z,100441.00
2022-11-19T21:10:08.273Z,100448.00
2022-11-19T21:12:36.536Z,100448.00
2022-11-19T21:15:07.022Z,100437.00
2022-11-19T21:17:35.210Z,100430.00
2022-11-19T21:20:03.370Z,100436.00
2022-11-19T21:22:31.725Z,100439.00
2022-11-19T21:25:00.372Z,100440.00
2022-11-19T21:27:28.652Z,100445.00
2022-11-19T21:29:56.907Z,100434.00
2022-11-19T21:32:26.841Z,100438.00
2022-11-19T21:34:55.028Z,100434.00
2022-11-19T21:37:23.289Z,100435.00
2022-11-19T21:39:51.517Z,100430.00
2022-11-19T21:42:19.710Z,100408.00
2022-11-19T21:44:48.348Z,100423.00
2022-11-19T21:47:16.497Z,100429.00
2022-11-19T21:49:46.056Z,100422.00
2022-11-19T21:52:14.275Z,100434.00
2022-11-19T21:54:42.424Z,100434.00
2022-11-19T21:57:10.689Z,100425.00
2022-11-19T21:59:38.917Z,100432.00
